Time;durP1;ratioP1;P1;durP2;ratioP2;P2;SDS_P1;SDS_P2;PMS_P1;PMS_P2;Temp;Humidity;BMP_temperature;BMP_pressure;BME280_temperature;BME280_humidity;BME280_pressure;Samples;Min_cycle;Max_cycle;Signal;HPM_P1;HPM_P2
2021/03/26 00:00:37;;;;;;;8.27;5.93;;;;;;;4.63;71.10;96081.19;5056330;28;20177;-77
2021/03/26 00:03:06;;;;;;;7.83;5.00;;;;;;;4.53;71.62;96088.66;5042504;28;20708;-77
2021/03/26 00:05:32;;;;;;;6.87;5.30;;;;;;;4.43;71.79;96085.03;5059854;28;20165;-77
2021/03/26 00:07:57;;;;;;;6.07;5.10;;;;;;;4.35;71.87;96089.81;5062252;28;20216;-78
2021/03/26 00:10:22;;;;;;;5.93;5.13;;;;;;;4.28;71.78;96083.41;5059948;28;20227;-77
2021/03/26 00:12:48;;;;;;;7.30;5.23;;;;;;;4.26;71.96;96080.94;5042960;28;20209;-77
2021/03/26 00:15:13;;;;;;;7.57;5.20;;;;;;;4.37;71.80;96082.00;5059619;28;20178;-77
2021/03/26 00:17:39;;;;;;;5.47;4.70;;;;;;;4.35;72.34;96083.84;5059428;28;20177;-77
2021/03/26 00:20:05;;;;;;;5.77;4.83;;;;;;;4.47;71.63;96076.19;5059728;28;20638;-77
2021/03/26 00:22:30;;;;;;;7.90;4.60;;;;;;;4.37;71.75;96076.88;5041864;28;20239;-76
2021/03/26 00:24:56;;;;;;;5.80;4.37;;;;;;;4.33;72.20;96075.38;5059886;28;20539;-77
2021/03/26 00:27:21;;;;;;;5.47;4.27;;;;;;;4.24;72.18;96077.66;5058688;28;20517;-77
2021/03/26 00:29:46;;;;;;;6.23;4.47;;;;;;;4.26;72.35;96075.78;5059467;28;20216;-77
2021/03/26 00:32:12;;;;;;;5.93;4.17;;;;;;;4.22;72.24;96076.91;5058018;28;20209;-77
2021/03/26 00:34:37;;;;;;;7.00;3.90;;;;;;;4.23;72.34;96075.97;5040979;28;20544;-76
2021/03/26 00:37:02;;;;;;;5.60;3.80;;;;;;;4.21;73.06;96080.38;5059466;28;20210;-77
2021/03/26 00:39:28;;;;;;;6.13;3.90;;;;;;;4.21;72.90;96072.69;5059924;28;20214;-77
2021/03/26 00:41:53;;;;;;;5.63;4.00;;;;;;;4.32;72.76;96078.88;5058866;28;20202;-77
2021/03/26 00:44:18;;;;;;;5.77;3.87;;;;;;;4.31;72.44;96077.25;5057877;28;20224;-77
2021/03/26 00:46:44;;;;;;;4.63;3.77;;;;;;;4.29;72.36;96073.94;5041888;28;20185;-77
2021/03/26 00:49:10;;;;;;;6.17;4.00;;;;;;;4.35;72.77;96068.44;5041503;28;20190;-77
2021/03/26 00:51:36;;;;;;;8.63;4.57;;;;;;;4.36;72.97;96070.06;5059390;28;20174;-77
2021/03/26 00:54:02;;;;;;;5.67;3.93;;;;;;;4.57;72.66;96073.03;5057921;28;20642;-77
2021/03/26 00:56:28;;;;;;;7.60;5.03;;;;;;;4.70;72.33;96071.31;5057852;28;20214;-76
2021/03/26 00:58:53;;;;;;;7.33;4.20;;;;;;;4.73;72.13;96074.50;5058195;28;20688;-77
2021/03/26 01:01:18;;;;;;;5.30;4.17;;;;;;;4.77;71.92;96073.41;5041690;28;20268;-77
2021/03/26 01:03:44;;;;;;;5.80;4.20;;;;;;;4.79;72.12;96066.41;5058669;28;20224;-76
2021/03/26 01:06:09;;;;;;;7.50;4.30;;;;;;;4.80;71.49;96068.06;5059042;28;20209;-77
2021/03/26 01:08:35;;;;;;;6.93;3.97;;;;;;;4.76;71.98;96069.16;5057695;28;20539;-76
2021/03/26 01:11:14;;;;;;;6.10;4.47;;;;;;;4.68;72.14;96073.16;5041514;28;20178;-77
2021/03/26 01:13:40;;;;;;;5.37;4.00;;;;;;;4.63;71.87;96067.50;5073424;28;20212;-77
2021/03/26 01:16:06;;;;;;;6.33;5.23;;;;;;;4.58;72.18;96060.06;5040261;28;20656;-77
2021/03/26 01:18:37;;;;;;;6.77;4.10;;;;;;;4.58;72.23;96054.09;5041434;28;20186;-77
2021/03/26 01:21:04;;;;;;;7.23;4.00;;;;;;;4.55;72.45;96055.13;5058931;28;20177;-77
2021/03/26 01:23:30;;;;;;;8.53;4.87;;;;;;;4.53;72.67;96049.25;5041020;28;20205;-77
2021/03/26 01:25:56;;;;;;;10.10;4.63;;;;;;;4.52;72.66;96052.75;5040690;28;20232;-77
2021/03/26 01:28:23;;;;;;;9.30;4.30;;;;;;;4.52;72.99;96048.44;5057754;28;20178;-77
2021/03/26 01:30:49;;;;;;;5.37;3.90;;;;;;;4.54;72.92;96050.91;5040829;28;20178;-77
2021/03/26 01:33:15;;;;;;;6.17;3.63;;;;;;;4.54;73.09;96043.19;5057773;28;20208;-76
2021/03/26 01:35:40;;;;;;;6.70;4.20;;;;;;;4.55;73.14;96045.66;5057886;28;20229;-76
2021/03/26 01:38:07;;;;;;;4.73;3.67;;;;;;;4.55;72.82;96037.94;5041250;28;20261;-77
2021/03/26 01:40:48;;;;;;;4.10;3.30;;;;;;;4.58;72.85;96036.09;5057518;28;20178;-77
2021/03/26 01:43:25;;;;;;;5.87;4.13;;;;;;;4.53;73.14;96032.06;5073814;28;20228;-77
2021/03/26 01:45:52;;;;;;;4.53;3.43;;;;;;;4.48;73.65;96033.28;5040276;28;20178;-77
2021/03/26 01:48:25;;;;;;;5.47;3.70;;;;;;;4.45;73.46;96029.16;5040546;28;20194;-76
2021/03/26 01:50:51;;;;;;;5.50;3.63;;;;;;;4.42;73.98;96031.13;5040042;28;20212;-77
2021/03/26 01:53:17;;;;;;;4.53;3.30;;;;;;;4.41;73.84;96032.84;5040854;28;20201;-77
2021/03/26 01:55:45;;;;;;;4.17;3.47;;;;;;;4.38;74.05;96032.22;5040517;28;20231;-77
2021/03/26 01:58:14;;;;;;;4.67;3.27;;;;;;;4.35;74.30;96037.56;5077167;28;20177;-77
2021/03/26 02:00:46;;;;;;;4.87;3.90;;;;;;;4.29;73.87;96032.81;5093548;28;20546;-77
2021/03/26 02:03:30;;;;;;;5.47;3.73;;;;;;;4.24;73.76;96033.94;5076770;28;20684;-77
2021/03/26 02:06:02;;;;;;;7.10;3.67;;;;;;;4.15;74.29;96036.25;5077041;28;20222;-76
2021/03/26 02:08:36;;;;;;;5.80;3.33;;;;;;;4.07;74.63;96026.47;5059988;28;20187;-77
2021/03/26 02:11:06;;;;;;;4.07;3.23;;;;;;;4.06;74.15;96029.94;5076777;28;20184;-77
2021/03/26 02:13:34;;;;;;;4.57;3.30;;;;;;;3.92;74.07;96029.97;5077306;28;20670;-77
2021/03/26 02:16:01;;;;;;;3.80;3.40;;;;;;;3.83;74.63;96031.38;5093639;28;20208;-77
2021/03/26 02:18:33;;;;;;;6.27;3.50;;;;;;;3.80;74.91;96025.59;5077180;28;20173;-77
2021/03/26 02:21:03;;;;;;;4.77;3.17;;;;;;;3.75;74.71;96031.03;5094545;28;20205;-77
2021/03/26 02:23:29;;;;;;;3.87;3.07;;;;;;;3.71;75.22;96034.72;5093631;28;20284;-77
2021/03/26 02:25:57;;;;;;;5.50;3.20;;;;;;;3.60;75.62;96021.69;5093724;28;20324;-77
2021/03/26 02:28:23;;;;;;;4.40;3.13;;;;;;;3.61;75.88;96026.72;5076988;28;20524;-77
2021/03/26 02:30:52;;;;;;;5.23;3.70;;;;;;;3.53;75.81;96031.50;5077411;28;20192;-77
2021/03/26 02:33:18;;;;;;;3.83;3.20;;;;;;;3.50;75.85;96025.72;5078295;28;20200;-77
2021/03/26 02:35:46;;;;;;;5.63;3.70;;;;;;;3.53;75.91;96028.91;5059259;28;20197;-77
2021/03/26 02:38:25;;;;;;;6.67;3.83;;;;;;;3.45;76.07;96027.78;5059304;28;20261;-77
2021/03/26 02:41:02;;;;;;;7.40;3.43;;;;;;;3.44;76.37;96034.63;5076373;28;20621;-76
2021/03/26 02:44:03;;;;;;;5.37;3.60;;;;;;;3.44;76.54;96020.97;5093528;28;20690;-77
2021/03/26 02:46:33;;;;;;;4.90;3.83;;;;;;;3.41;76.17;96022.78;5077518;28;20187;-77
2021/03/26 02:49:17;;;;;;;5.87;3.77;;;;;;;3.40;76.36;96022.91;5060079;28;20667;-77
2021/03/26 02:51:47;;;;;;;5.80;4.43;;;;;;;3.47;76.14;96024.19;5076304;28;20219;-77
2021/03/26 02:54:27;;;;;;;7.50;4.50;;;;;;;3.49;76.92;96022.34;5076062;28;20183;-76
2021/03/26 02:56:57;;;;;;;6.77;5.10;;;;;;;3.57;76.57;96019.31;5093422;28;20232;-77
2021/03/26 02:59:29;;;;;;;7.50;5.57;;;;;;;3.63;76.62;96016.38;5076732;28;20177;-77
2021/03/26 03:01:54;;;;;;;8.73;5.50;;;;;;;3.75;76.95;96022.50;5059347;28;20201;-77
2021/03/26 03:04:38;;;;;;;7.87;5.67;;;;;;;3.88;76.69;96013.91;5075818;28;20173;-77
2021/03/26 03:07:10;;;;;;;7.63;5.57;;;;;;;3.98;76.51;96011.63;5077244;28;20168;-77
2021/03/26 03:09:38;;;;;;;7.43;5.90;;;;;;;4.01;76.31;96014.00;5093051;28;20272;-77
2021/03/26 03:12:15;;;;;;;9.03;6.23;;;;;;;4.05;76.09;96007.72;5075652;28;20236;-77
2021/03/26 03:14:55;;;;;;;9.67;6.77;;;;;;;4.13;76.04;96005.50;5093353;28;20181;-78
2021/03/26 03:17:24;;;;;;;8.63;6.07;;;;;;;4.14;75.79;96003.75;5076296;28;20230;-77
2021/03/26 03:20:19;;;;;;;7.73;4.97;;;;;;;4.08;75.32;96004.97;5076528;28;20268;-77
2021/03/26 03:23:11;;;;;;;8.23;4.67;;;;;;;4.01;75.19;96008.03;5058269;28;20209;-77
2021/03/26 03:25:37;;;;;;;7.00;5.10;;;;;;;3.92;75.42;96004.28;5092340;28;20173;-77
2021/03/26 03:28:17;;;;;;;7.20;5.60;;;;;;;4.01;75.68;96013.16;5092948;28;20239;-77
2021/03/26 03:31:08;;;;;;;6.27;5.33;;;;;;;3.91;75.59;96010.34;5092540;28;20198;-77
2021/03/26 03:33:54;;;;;;;7.57;5.70;;;;;;;3.82;75.89;96000.66;5075824;28;20189;-77
2021/03/26 03:36:22;;;;;;;9.80;5.90;;;;;;;3.74;76.11;95993.41;5076360;28;20215;-77
2021/03/26 03:38:55;;;;;;;9.90;5.63;;;;;;;3.66;76.29;95993.06;5079785;28;20185;-77
2021/03/26 03:41:29;;;;;;;6.90;5.03;;;;;;;3.59;76.74;95997.75;5097085;28;20666;-77
2021/03/26 03:44:12;;;;;;;7.63;5.40;;;;;;;3.45;77.02;96000.34;5080969;28;20240;-77
2021/03/26 03:46:50;;;;;;;9.27;5.77;;;;;;;3.36;76.96;95996.59;5081064;28;20169;-77
2021/03/26 03:49:37;;;;;;;11.77;5.80;;;;;;;3.25;77.26;95993.00;5079632;28;20178;-77
2021/03/26 03:52:27;;;;;;;8.80;5.60;;;;;;;3.26;76.63;95992.09;5079353;28;20216;-77
2021/03/26 03:55:14;;;;;;;7.60;5.87;;;;;;;3.19;77.16;95998.53;5096404;28;20209;-77
2021/03/26 03:57:44;;;;;;;7.20;5.30;;;;;;;3.13;77.15;96000.53;5079275;28;20190;-77
2021/03/26 04:00:10;;;;;;;7.17;5.77;;;;;;;3.19;77.63;95994.22;5096804;28;20177;-77
2021/03/26 04:02:42;;;;;;;8.90;5.73;;;;;;;3.23;77.25;95994.84;5080033;28;20203;-77
2021/03/26 04:05:24;;;;;;;10.57;5.83;;;;;;;3.25;77.54;95996.38;5062521;28;20191;-77
2021/03/26 04:07:57;;;;;;;6.77;5.80;;;;;;;3.31;77.52;95990.06;5096321;28;20228;-77
2021/03/26 04:10:24;;;;;;;10.20;5.97;;;;;;;3.33;77.40;95993.38;5080226;28;20613;-77
2021/03/26 04:12:52;;;;;;;8.43;5.80;;;;;;;3.35;77.55;95994.09;5096049;28;20205;-76
2021/03/26 04:15:22;;;;;;;6.43;5.50;;;;;;;3.34;77.35;95995.00;5078323;28;20639;-77
2021/03/26 04:17:53;;;;;;;7.67;5.90;;;;;;;3.37;77.68;95992.28;5078780;28;20226;-77
2021/03/26 04:20:26;;;;;;;7.50;5.50;;;;;;;3.38;77.42;95994.75;5095195;28;20176;-77
2021/03/26 04:22:58;;;;;;;8.30;5.93;;;;;;;3.42;77.28;95991.06;5078707;28;20687;-77
2021/03/26 04:25:24;;;;;;;9.90;6.00;;;;;;;3.49;77.65;95994.09;5095498;28;20177;-77
2021/03/26 04:27:58;;;;;;;8.93;6.23;;;;;;;3.59;77.67;95996.91;5095178;28;20178;-77
2021/03/26 04:30:31;;;;;;;9.53;5.63;;;;;;;3.69;77.03;95991.13;5061598;28;20192;-77
2021/03/26 04:32:56;;;;;;;6.33;5.23;;;;;;;3.80;76.81;95989.63;5095291;28;20197;-77
2021/03/26 04:35:24;;;;;;;9.50;6.10;;;;;;;3.78;76.45;95986.34;5077999;28;20255;-77
2021/03/26 04:37:55;;;;;;;11.03;6.10;;;;;;;3.87;76.52;95985.75;5095568;28;20185;-77
2021/03/26 04:40:31;;;;;;;8.30;5.90;;;;;;;3.81;76.92;95983.59;5079581;28;20268;-77
2021/03/26 04:43:20;;;;;;;7.80;5.43;;;;;;;3.73;76.91;95993.50;5078055;28;20197;-77
2021/03/26 04:46:04;;;;;;;6.00;4.80;;;;;;;3.68;76.58;95981.75;5079129;28;20640;-77
2021/03/26 04:48:35;;;;;;;8.30;5.77;;;;;;;3.65;77.03;95981.13;5078092;28;20201;-77
2021/03/26 04:51:31;;;;;;;8.53;5.63;;;;;;;3.68;76.17;95976.63;5076536;28;20178;-77
2021/03/26 04:54:08;;;;;;;6.97;5.80;;;;;;;3.60;76.56;95978.03;5072385;28;20197;-77
2021/03/26 04:56:39;;;;;;;9.23;5.93;;;;;;;3.56;76.18;95967.13;5072289;28;20322;-77
2021/03/26 04:59:05;;;;;;;8.57;6.33;;;;;;;3.45;76.79;95966.97;5068676;28;20184;-77
2021/03/26 05:01:31;;;;;;;7.73;5.23;;;;;;;3.47;76.64;95970.25;5057314;28;20187;-76
2021/03/26 05:04:21;;;;;;;6.63;5.50;;;;;;;3.45;76.61;95966.16;5058692;28;20189;-77
2021/03/26 05:06:52;;;;;;;7.97;5.27;;;;;;;3.41;76.96;95976.59;5076766;28;20173;-77
2021/03/26 05:09:22;;;;;;;8.53;5.30;;;;;;;3.32;76.54;95973.75;5077948;28;20208;-77
2021/03/26 05:11:50;;;;;;;7.87;5.67;;;;;;;3.35;76.74;95960.72;5077979;28;20262;-76
2021/03/26 05:14:21;;;;;;;6.53;5.70;;;;;;;3.36;77.13;95963.22;5079747;28;20178;-76
2021/03/26 05:16:52;;;;;;;7.63;5.60;;;;;;;3.36;77.02;95964.97;5055300;28;20209;-76
2021/03/26 05:19:31;;;;;;;10.60;6.67;;;;;;;3.22;76.97;95967.53;5072341;28;20629;-77
2021/03/26 05:22:21;;;;;;;9.13;6.30;;;;;;;3.16;77.28;95968.72;5072221;28;20193;-77
2021/03/26 05:24:50;;;;;;;9.53;6.30;;;;;;;3.12;77.30;95968.09;5076369;28;20187;-77
2021/03/26 05:27:16;;;;;;;12.20;7.57;;;;;;;3.19;77.04;95965.97;5060420;28;20264;-77
2021/03/26 05:29:41;;;;;;;9.03;6.33;;;;;;;3.26;77.30;95974.13;5060580;28;20625;-77
2021/03/26 05:32:21;;;;;;;9.07;6.03;;;;;;;3.22;77.06;95968.34;5077734;28;20735;-77
2021/03/26 05:35:02;;;;;;;8.37;6.43;;;;;;;3.24;77.07;95970.81;5076882;28;20178;-77
2021/03/26 05:37:36;;;;;;;10.33;6.00;;;;;;;3.22;76.63;95973.47;5077028;28;20206;-77
2021/03/26 05:40:39;;;;;;;8.20;5.73;;;;;;;3.24;76.70;95975.97;5077236;28;20188;-77
2021/03/26 05:43:32;;;;;;;6.83;5.60;;;;;;;3.26;76.47;95980.06;5076634;28;20265;-76
2021/03/26 05:46:17;;;;;;;9.93;6.33;;;;;;;3.29;76.62;95982.47;5076433;28;20179;-77
2021/03/26 05:49:16;;;;;;;7.90;5.30;;;;;;;3.35;76.21;95988.97;5078251;28;20183;-77
2021/03/26 05:51:56;;;;;;;6.30;5.43;;;;;;;3.33;76.24;95985.66;5078176;28;20264;-78
2021/03/26 05:54:40;;;;;;;9.00;5.93;;;;;;;3.36;76.21;95993.22;5059366;28;20698;-77
2021/03/26 05:57:14;;;;;;;9.30;5.80;;;;;;;3.39;76.24;95983.56;5076301;28;20216;-77
2021/03/26 05:59:56;;;;;;;9.73;6.03;;;;;;;3.40;76.50;95990.34;5074039;28;20197;-77
2021/03/26 06:02:37;;;;;;;9.13;6.47;;;;;;;3.48;76.38;95983.91;5074030;28;20209;-78
2021/03/26 06:05:23;;;;;;;11.00;6.20;;;;;;;3.54;76.03;95986.94;5074706;28;20555;-77
2021/03/26 06:08:37;;;;;;;11.07;7.43;;;;;;;3.67;76.45;95989.56;5050007;28;20267;-76
2021/03/26 06:11:27;;;;;;;10.83;7.27;;;;;;;3.79;76.01;95985.41;5021714;28;20307;-76
2021/03/26 06:14:19;;;;;;;13.87;7.07;;;;;;;3.90;76.01;95985.59;5068407;28;20185;-76
2021/03/26 06:17:13;;;;;;;8.50;6.27;;;;;;;4.06;75.48;95991.38;5067346;28;20232;-75
2021/03/26 06:20:03;;;;;;;12.10;7.53;;;;;;;4.31;74.09;95997.53;5050447;28;20194;-76
2021/03/26 06:23:12;;;;;;;13.20;8.23;;;;;;;4.55;73.78;95988.25;5051955;28;20200;-76
2021/03/26 06:25:50;;;;;;;13.23;8.10;;;;;;;4.66;73.35;95983.22;5009729;28;20194;-75
2021/03/26 06:28:34;;;;;;;16.17;8.77;;;;;;;4.77;73.32;95983.34;5034182;28;20646;-75
2021/03/26 06:31:11;;;;;;;14.17;8.40;;;;;;;4.91;72.77;95981.59;5020557;28;20186;-74
2021/03/26 06:34:07;;;;;;;9.77;7.70;;;;;;;5.05;72.50;95981.50;4998504;28;20206;-74
2021/03/26 06:36:42;;;;;;;10.60;7.17;;;;;;;5.19;71.66;95988.28;5026083;28;20292;-75
2021/03/26 06:39:30;;;;;;;9.17;6.07;;;;;;;5.31;71.36;95984.88;5032491;28;20185;-76
2021/03/26 06:42:14;;;;;;;6.97;5.53;;;;;;;5.39;72.03;95987.78;5030467;28;20229;-75
2021/03/26 06:44:45;;;;;;;6.97;5.23;;;;;;;5.41;71.98;95993.63;5015540;28;20584;-76
2021/03/26 06:47:32;;;;;;;8.97;6.63;;;;;;;5.36;72.17;95981.06;5023251;28;20201;-75
2021/03/26 06:50:10;;;;;;;9.63;6.70;;;;;;;5.35;72.47;95971.69;5012853;28;20297;-76
2021/03/26 06:52:56;;;;;;;9.70;6.67;;;;;;;5.44;72.09;95980.53;5012500;28;20213;-76
2021/03/26 06:55:43;;;;;;;11.67;8.03;;;;;;;5.50;71.97;95980.13;5037000;28;20182;-76
2021/03/26 06:58:30;;;;;;;12.97;8.40;;;;;;;5.60;71.65;95975.97;5015776;28;20182;-76
2021/03/26 07:01:06;;;;;;;9.53;6.97;;;;;;;5.72;71.48;95976.84;5051569;28;20182;-76
2021/03/26 07:03:50;;;;;;;10.97;7.10;;;;;;;5.76;71.75;95980.88;5050486;28;20201;-75
2021/03/26 07:06:43;;;;;;;10.53;7.70;;;;;;;5.86;71.27;95981.06;5051536;28;20186;-77
2021/03/26 07:09:39;;;;;;;12.23;7.53;;;;;;;6.04;69.92;95984.94;5062562;28;20201;-77
2021/03/26 07:12:29;;;;;;;12.97;9.10;;;;;;;6.37;68.40;95988.63;5073868;28;20209;-77
2021/03/26 07:15:02;;;;;;;13.37;8.07;;;;;;;6.37;67.80;95978.31;5075403;28;20188;-76
2021/03/26 07:17:39;;;;;;;12.37;7.93;;;;;;;6.46;67.86;95973.28;5071610;28;20234;-75
2021/03/26 07:20:17;;;;;;;11.10;7.73;;;;;;;6.67;67.75;95982.97;5054631;28;20253;-77
2021/03/26 07:22:57;;;;;;;11.23;7.60;;;;;;;6.80;66.91;95981.97;5068988;28;20208;-76
2021/03/26 07:26:00;;;;;;;13.23;8.07;;;;;;;7.14;66.82;95981.16;5073317;28;20177;-74
2021/03/26 07:28:35;;;;;;;11.83;8.70;;;;;;;7.30;65.06;95986.81;5073694;28;20718;-76
2021/03/26 07:31:13;;;;;;;13.43;9.17;;;;;;;7.59;64.08;95984.59;5077313;28;20647;-76
2021/03/26 07:34:02;;;;;;;16.93;10.07;;;;;;;7.84;63.74;95978.34;5075134;28;20695;-76
2021/03/26 07:36:56;;;;;;;15.27;8.50;;;;;;;8.02;62.55;95978.66;5052753;28;20227;-75
2021/03/26 07:39:42;;;;;;;14.20;8.57;;;;;;;7.98;62.05;95983.25;5055639;28;20178;-76
2021/03/26 07:42:27;;;;;;;11.97;7.60;;;;;;;8.24;62.37;95981.19;5038799;28;20201;-77
2021/03/26 07:45:04;;;;;;;12.20;8.10;;;;;;;8.20;62.11;95980.59;5055875;28;20174;-77
2021/03/26 07:48:23;;;;;;;10.20;8.17;;;;;;;8.42;61.82;95978.91;5066483;28;20188;-75
2021/03/26 07:50:58;;;;;;;12.90;8.47;;;;;;;8.56;61.12;95978.59;5010562;28;20218;-77
2021/03/26 07:53:52;;;;;;;13.60;8.97;;;;;;;8.68;61.31;95977.63;5021829;28;20217;-77
2021/03/26 07:56:37;;;;;;;12.03;8.37;;;;;;;8.90;60.40;95979.25;5047967;28;20233;-77
2021/03/26 07:59:24;;;;;;;11.37;8.10;;;;;;;8.95;59.71;95984.06;5055726;28;20192;-77
2021/03/26 08:02:03;;;;;;;12.80;8.20;;;;;;;9.15;59.64;95983.22;5044369;28;20210;-77
2021/03/26 08:04:40;;;;;;;11.77;8.17;;;;;;;9.19;58.98;95984.63;5000101;28;20193;-77
2021/03/26 08:07:19;;;;;;;11.10;7.43;;;;;;;9.28;59.26;95986.44;5000532;28;20878;-77
2021/03/26 08:09:53;;;;;;;11.60;7.73;;;;;;;9.51;58.15;95983.66;5001875;28;20189;-77
2021/03/26 08:12:46;;;;;;;10.80;7.80;;;;;;;9.46;57.56;95983.25;5023954;28;20217;-77
2021/03/26 08:15:36;;;;;;;11.03;7.77;;;;;;;9.52;56.89;95986.13;5038944;28;20183;-78
2021/03/26 08:18:24;;;;;;;8.77;7.53;;;;;;;9.66;57.08;95984.97;5029435;28;20199;-77
2021/03/26 08:20:56;;;;;;;11.00;7.50;;;;;;;9.73;57.30;95982.69;5017806;28;20218;-77
2021/03/26 08:23:30;;;;;;;12.03;7.97;;;;;;;9.93;56.00;95980.00;5019996;28;20261;-78
2021/03/26 08:26:04;;;;;;;14.60;8.10;;;;;;;9.86;56.02;95978.06;5058409;28;20193;-78
2021/03/26 08:28:48;;;;;;;12.20;8.00;;;;;;;9.86;55.22;95978.88;5067196;28;20773;-77
2021/03/26 08:31:30;;;;;;;11.77;7.70;;;;;;;9.95;56.40;95977.25;5067910;28;20182;-77
2021/03/26 08:34:04;;;;;;;15.47;8.50;;;;;;;10.04;55.93;95978.22;5071076;28;20188;-77
2021/03/26 08:36:39;;;;;;;13.27;8.93;;;;;;;10.03;55.50;95974.00;5059920;28;20204;-77
2021/03/26 08:39:25;;;;;;;13.03;8.90;;;;;;;10.01;55.70;95981.09;5083646;28;20546;-78
2021/03/26 08:42:15;;;;;;;13.23;9.57;;;;;;;10.01;54.96;95975.91;5057925;28;20564;-77
2021/03/26 08:44:42;;;;;;;15.93;10.93;;;;;;;9.72;54.59;95979.25;5046862;28;20552;-76
2021/03/26 08:47:21;;;;;;;14.60;10.30;;;;;;;9.78;55.76;95977.91;5072192;28;20217;-76
2021/03/26 08:50:05;;;;;;;13.37;9.63;;;;;;;9.68;56.21;95972.69;5070098;28;20220;-76
2021/03/26 08:52:52;;;;;;;13.90;10.33;;;;;;;9.66;55.55;95969.41;5075805;28;20216;-77
2021/03/26 08:55:36;;;;;;;14.50;9.87;;;;;;;9.49;56.51;95973.44;5076630;28;20200;-77
2021/03/26 08:58:19;;;;;;;15.40;9.93;;;;;;;9.77;56.37;95977.06;5073443;28;20658;-76
2021/03/26 09:01:10;;;;;;;13.63;9.27;;;;;;;9.76;55.17;95975.44;5072762;28;20212;-77
2021/03/26 09:04:07;;;;;;;14.13;10.23;;;;;;;9.95;55.39;95977.25;5070432;28;20201;-77
2021/03/26 09:06:53;;;;;;;17.00;10.67;;;;;;;10.24;54.88;95972.16;5073812;28;20224;-77
2021/03/26 09:09:27;;;;;;;13.57;9.73;;;;;;;10.06;54.99;95973.72;5070774;28;20268;-76
2021/03/26 09:12:29;;;;;;;12.90;9.10;;;;;;;10.16;54.90;95966.81;5069486;28;20234;-76
2021/03/26 09:15:33;;;;;;;12.23;9.63;;;;;;;10.34;54.81;95956.59;5060415;28;20259;-79
2021/03/26 09:18:07;;;;;;;14.63;9.53;;;;;;;10.67;53.92;95956.16;5053114;28;20207;-80
2021/03/26 09:20:43;;;;;;;13.87;9.20;;;;;;;10.89;54.26;95954.25;5068219;28;20200;-79
2021/03/26 09:23:45;;;;;;;14.40;9.57;;;;;;;11.17;53.66;95961.16;5049013;28;20204;-78
2021/03/26 09:26:32;;;;;;;13.83;9.40;;;;;;;11.47;52.74;95957.47;5048958;28;20272;-79
2021/03/26 09:29:03;;;;;;;13.80;9.57;;;;;;;11.58;51.56;95954.72;5057621;28;20178;-78
2021/03/26 09:31:50;;;;;;;16.33;9.90;;;;;;;11.87;51.28;95949.38;5073778;28;20251;-78
2021/03/26 09:34:22;;;;;;;17.70;9.20;;;;;;;12.13;51.17;95952.09;5073295;28;20462;-78
2021/03/26 09:37:05;;;;;;;14.90;9.07;;;;;;;12.39;49.31;95949.59;5058709;28;20270;-81
2021/03/26 09:39:32;;;;;;;12.63;8.73;;;;;;;12.25;49.60;95951.88;5066991;28;20197;-80
2021/03/26 09:42:09;;;;;;;13.47;9.20;;;;;;;12.22;48.77;95952.19;5069747;28;20210;-81
2021/03/26 09:44:48;;;;;;;10.37;8.77;;;;;;;12.26;49.11;95954.34;5069000;28;20230;-79
2021/03/26 09:47:58;;;;;;;13.27;9.07;;;;;;;12.18;49.24;95949.06;5061893;28;20216;-78
2021/03/26 09:51:02;;;;;;;13.37;7.50;;;;;;;12.19;50.30;95948.94;5049818;28;20207;-79
2021/03/26 09:53:29;;;;;;;11.10;8.63;;;;;;;11.95;49.36;95940.03;5058186;28;20215;-78
2021/03/26 09:56:05;;;;;;;15.00;9.37;;;;;;;11.82;50.10;95942.97;5063778;28;20274;-79
2021/03/26 09:58:39;;;;;;;13.80;8.27;;;;;;;11.73;51.26;95936.00;5063840;28;20215;-78
2021/03/26 10:01:11;;;;;;;9.60;7.93;;;;;;;11.36;52.10;95936.88;5066276;28;20216;-78
2021/03/26 10:03:47;;;;;;;11.60;8.87;;;;;;;11.28;52.57;95936.75;5066133;28;20203;-78
2021/03/26 10:06:35;;;;;;;11.70;8.47;;;;;;;11.20;53.24;95939.25;5069361;28;20641;-77
2021/03/26 10:09:21;;;;;;;13.03;8.20;;;;;;;11.04;53.81;95932.88;5068691;28;20177;-78
2021/03/26 10:11:46;;;;;;;13.13;8.70;;;;;;;10.96;53.25;95932.75;5051915;28;20221;-78
2021/03/26 10:14:21;;;;;;;11.97;8.80;;;;;;;11.00;53.22;95936.69;5064919;28;20188;-79
2021/03/26 10:16:53;;;;;;;14.57;8.40;;;;;;;10.92;52.69;95923.59;5068260;28;20833;-78
2021/03/26 10:19:36;;;;;;;15.73;8.70;;;;;;;11.06;52.81;95919.72;5067244;28;20186;-78
2021/03/26 10:22:10;;;;;;;11.87;9.00;;;;;;;11.17;52.09;95919.56;5063987;28;20652;-77
2021/03/26 10:24:36;;;;;;;14.47;8.93;;;;;;;11.43;51.88;95924.13;5064746;28;20178;-78
2021/03/26 10:27:20;;;;;;;15.43;9.60;;;;;;;11.65;52.60;95913.31;5059878;28;20173;-79
2021/03/26 10:30:03;;;;;;;11.23;8.90;;;;;;;11.51;52.81;95914.63;5058035;28;20274;-77
2021/03/26 10:32:31;;;;;;;13.77;9.10;;;;;;;11.59;52.71;95919.13;5069705;28;20201;-78
2021/03/26 10:34:59;;;;;;;14.37;9.57;;;;;;;11.59;52.17;95909.53;5069002;28;20222;-79
2021/03/26 10:37:39;;;;;;;11.27;8.77;;;;;;;11.50;51.14;95905.19;5067244;28;20319;-78
2021/03/26 10:40:10;;;;;;;13.77;7.83;;;;;;;11.72;51.54;95903.16;5065189;28;20184;-78
2021/03/26 10:43:05;;;;;;;14.63;9.07;;;;;;;11.81;51.45;95902.31;5058307;28;20300;-78
2021/03/26 10:45:38;;;;;;;15.17;10.40;;;;;;;11.88;51.14;95895.56;5052936;28;20182;-78
2021/03/26 10:48:19;;;;;;;12.40;9.73;;;;;;;11.85;51.54;95895.88;5066049;28;20713;-77
2021/03/26 10:51:06;;;;;;;10.97;8.67;;;;;;;11.88;51.81;95892.97;5058059;28;20193;-78
2021/03/26 10:53:37;;;;;;;14.27;9.03;;;;;;;11.88;49.34;95887.75;5047676;28;20194;-79
2021/03/26 10:56:29;;;;;;;12.93;8.17;;;;;;;11.83;50.13;95889.97;5050730;28;20205;-78
2021/03/26 10:59:00;;;;;;;9.80;7.83;;;;;;;12.00;50.03;95881.34;5045753;28;20182;-79
2021/03/26 11:01:26;;;;;;;11.90;7.80;;;;;;;11.92;50.75;95876.06;5066278;28;20672;-79
2021/03/26 11:03:58;;;;;;;12.10;8.07;;;;;;;12.03;50.50;95867.25;5052839;28;20675;-82
2021/03/26 11:06:32;;;;;;;12.57;8.83;;;;;;;12.14;50.24;95870.44;5066138;28;20184;-80
2021/03/26 11:09:08;;;;;;;15.03;7.97;;;;;;;12.23;49.69;95860.91;5065164;28;20189;-79
2021/03/26 11:11:40;;;;;;;11.40;7.83;;;;;;;12.15;49.54;95869.47;5067099;28;20193;-78
2021/03/26 11:14:14;;;;;;;9.83;6.70;;;;;;;11.98;50.13;95849.47;5049966;28;20203;-78
2021/03/26 11:17:12;;;;;;;13.27;8.87;;;;;;;11.68;49.41;95866.22;5071479;28;20264;-79
2021/03/26 11:19:45;;;;;;;11.87;7.87;;;;;;;11.54;50.52;95862.31;5053206;28;20182;-78
2021/03/26 11:22:19;;;;;;;9.73;7.57;;;;;;;11.62;50.24;95859.81;5056172;28;20197;-78
2021/03/26 11:24:59;;;;;;;12.17;9.33;;;;;;;11.68;50.56;95857.59;5041475;28;20185;-78
2021/03/26 11:27:29;;;;;;;12.33;9.23;;;;;;;11.99;50.44;95848.50;5052540;28;20193;-78
2021/03/26 11:30:17;;;;;;;16.80;9.13;;;;;;;12.32;50.58;95848.78;5060494;28;20636;-78
2021/03/26 11:32:45;;;;;;;12.27;10.00;;;;;;;12.25;49.40;95845.94;5066823;28;20280;-79
2021/03/26 11:35:13;;;;;;;15.13;7.73;;;;;;;12.48;49.56;95838.50;5049472;28;20551;-78
2021/03/26 11:37:48;;;;;;;14.97;9.63;;;;;;;12.60;49.00;95842.47;5053008;28;20293;-78
2021/03/26 11:40:24;;;;;;;13.07;8.77;;;;;;;12.67;48.85;95838.28;5037603;28;20227;-78
2021/03/26 11:43:08;;;;;;;12.57;9.47;;;;;;;12.43;47.96;95832.91;5057086;28;20688;-79
2021/03/26 11:45:40;;;;;;;16.17;9.10;;;;;;;12.53;48.30;95831.00;5058784;28;20197;-77
2021/03/26 11:48:29;;;;;;;13.50;9.43;;;;;;;12.87;46.94;95819.81;5051436;28;20269;-77
2021/03/26 11:51:01;;;;;;;14.43;7.93;;;;;;;12.84;47.72;95830.56;5022458;28;20202;-77
2021/03/26 11:53:31;;;;;;;12.97;8.43;;;;;;;12.89;47.13;95825.69;5034055;28;20312;-77
2021/03/26 11:56:30;;;;;;;11.97;8.40;;;;;;;12.85;47.15;95824.38;5063930;28;20208;-78
2021/03/26 11:59:33;;;;;;;14.20;8.87;;;;;;;12.42;47.82;95813.03;5055408;28;20186;-77
2021/03/26 12:02:13;;;;;;;12.67;9.30;;;;;;;12.76;46.66;95808.69;5068589;28;20252;-77
2021/03/26 12:04:42;;;;;;;12.80;8.87;;;;;;;13.07;46.93;95809.97;5059639;28;20715;-79
2021/03/26 12:07:11;;;;;;;11.13;8.93;;;;;;;13.10;47.15;95817.50;5072671;28;20165;-77
2021/03/26 12:09:41;;;;;;;11.03;9.03;;;;;;;13.42;48.18;95806.38;5066791;28;20189;-78
2021/03/26 12:12:44;;;;;;;14.53;8.77;;;;;;;13.59;47.54;95805.47;5072798;28;20262;-76
2021/03/26 12:15:13;;;;;;;13.70;8.73;;;;;;;13.43;46.15;95803.66;5062552;28;20184;-76
2021/03/26 12:17:47;;;;;;;12.30;8.90;;;;;;;13.38;45.35;95797.25;5069600;28;20347;-77
2021/03/26 12:20:24;;;;;;;13.80;8.87;;;;;;;13.34;46.41;95781.13;5075245;28;20188;-77